sensor_id;sensor_type;location;lat;lon;timestamp;P1;durP1;ratioP1;P2;durP2;ratioP2
69170;SDS011;56279;47.902;12.308;2023-05-10T00:00:31;6.63;;;2.67;;
69170;SDS011;56279;47.902;12.308;2023-05-10T00:02:32;4.78;;;2.22;;
69170;SDS011;56279;47.902;12.308;2023-05-10T00:04:33;4.85;;;2.28;;
69170;SDS011;56279;47.902;12.308;2023-05-10T00:06:34;3.50;;;1.90;;
69170;SDS011;56279;47.902;12.308;2023-05-10T00:08:35;7.22;;;2.65;;
69170;SDS011;56279;47.902;12.308;2023-05-10T00:10:37;3.00;;;1.93;;
69170;SDS011;56279;47.902;12.308;2023-05-10T00:12:38;5.03;;;1.88;;
69170;SDS011;56279;47.902;12.308;2023-05-10T00:14:40;2.63;;;1.70;;
69170;SDS011;56279;47.902;12.308;2023-05-10T00:16:41;4.05;;;1.77;;
69170;SDS011;56279;47.902;12.308;2023-05-10T00:18:42;2.10;;;1.58;;
69170;SDS011;56279;47.902;12.308;2023-05-10T00:20:44;1.87;;;1.40;;
69170;SDS011;56279;47.902;12.308;2023-05-10T00:22:46;1.98;;;1.60;;
69170;SDS011;56279;47.902;12.308;2023-05-10T00:24:48;2.55;;;1.42;;
69170;SDS011;56279;47.902;12.308;2023-05-10T00:26:49;2.38;;;1.42;;
69170;SDS011;56279;47.902;12.308;2023-05-10T00:28:50;2.03;;;1.40;;
69170;SDS011;56279;47.902;12.308;2023-05-10T00:30:52;2.17;;;1.40;;
69170;SDS011;56279;47.902;12.308;2023-05-10T00:32:54;2.00;;;1.35;;
69170;SDS011;56279;47.902;12.308;2023-05-10T00:34:55;2.97;;;1.45;;
69170;SDS011;56279;47.902;12.308;2023-05-10T00:36:56;2.75;;;1.60;;
69170;SDS011;56279;47.902;12.308;2023-05-10T00:38:57;4.32;;;1.50;;
69170;SDS011;56279;47.902;12.308;2023-05-10T00:40:59;1.70;;;1.37;;
69170;SDS011;56279;47.902;12.308;2023-05-10T00:43:04;2.22;;;1.40;;
69170;SDS011;56279;47.902;12.308;2023-05-10T00:45:05;2.08;;;1.40;;
69170;SDS011;56279;47.902;12.308;2023-05-10T00:47:07;2.30;;;1.50;;
69170;SDS011;56279;47.902;12.308;2023-05-10T00:49:09;1.75;;;1.40;;
69170;SDS011;56279;47.902;12.308;2023-05-10T00:51:11;1.57;;;1.20;;
69170;SDS011;56279;47.902;12.308;2023-05-10T00:53:13;1.70;;;1.40;;
69170;SDS011;56279;47.902;12.308;2023-05-10T00:55:15;1.52;;;1.30;;
69170;SDS011;56279;47.902;12.308;2023-05-10T00:57:17;1.88;;;1.48;;
69170;SDS011;56279;47.902;12.308;2023-05-10T00:59:19;2.60;;;1.30;;
69170;SDS011;56279;47.902;12.308;2023-05-10T01:01:21;1.93;;;1.47;;
69170;SDS011;56279;47.902;12.308;2023-05-10T01:03:23;2.05;;;1.50;;
69170;SDS011;56279;47.902;12.308;2023-05-10T01:05:25;2.03;;;1.40;;
69170;SDS011;56279;47.902;12.308;2023-05-10T01:07:28;2.78;;;2.15;;
69170;SDS011;56279;47.902;12.308;2023-05-10T01:09:29;3.25;;;1.40;;
69170;SDS011;56279;47.902;12.308;2023-05-10T01:11:31;2.93;;;1.53;;
69170;SDS011;56279;47.902;12.308;2023-05-10T01:15:41;1.75;;;1.40;;
69170;SDS011;56279;47.902;12.308;2023-05-10T01:17:42;2.15;;;1.50;;
69170;SDS011;56279;47.902;12.308;2023-05-10T01:19:46;2.25;;;1.60;;
69170;SDS011;56279;47.902;12.308;2023-05-10T01:21:49;1.93;;;1.30;;
69170;SDS011;56279;47.902;12.308;2023-05-10T01:28:58;1.95;;;1.27;;
69170;SDS011;56279;47.902;12.308;2023-05-10T01:35:31;2.15;;;1.80;;
69170;SDS011;56279;47.902;12.308;2023-05-10T01:37:41;1.90;;;1.40;;
69170;SDS011;56279;47.902;12.308;2023-05-10T01:39:47;1.77;;;1.38;;
69170;SDS011;56279;47.902;12.308;2023-05-10T01:41:51;3.13;;;1.40;;
69170;SDS011;56279;47.902;12.308;2023-05-10T01:43:57;1.87;;;1.40;;
69170;SDS011;56279;47.902;12.308;2023-05-10T01:46:14;1.35;;;1.13;;
69170;SDS011;56279;47.902;12.308;2023-05-10T01:48:18;2.58;;;1.42;;
69170;SDS011;56279;47.902;12.308;2023-05-10T01:50:22;1.40;;;1.20;;
69170;SDS011;56279;47.902;12.308;2023-05-10T01:52:33;1.83;;;1.40;;
69170;SDS011;56279;47.902;12.308;2023-05-10T01:54:41;1.50;;;1.20;;
69170;SDS011;56279;47.902;12.308;2023-05-10T01:56:55;1.65;;;1.35;;
69170;SDS011;56279;47.902;12.308;2023-05-10T01:59:00;1.73;;;1.45;;
69170;SDS011;56279;47.902;12.308;2023-05-10T02:01:08;1.50;;;1.40;;
69170;SDS011;56279;47.902;12.308;2023-05-10T02:03:10;3.78;;;1.33;;
69170;SDS011;56279;47.902;12.308;2023-05-10T02:05:14;1.43;;;1.10;;
69170;SDS011;56279;47.902;12.308;2023-05-10T02:07:17;1.20;;;1.10;;
69170;SDS011;56279;47.902;12.308;2023-05-10T02:09:19;3.28;;;1.20;;
69170;SDS011;56279;47.902;12.308;2023-05-10T02:11:23;1.23;;;1.10;;
69170;SDS011;56279;47.902;12.308;2023-05-10T02:13:26;1.55;;;1.40;;
69170;SDS011;56279;47.902;12.308;2023-05-10T02:15:31;2.83;;;1.20;;
69170;SDS011;56279;47.902;12.308;2023-05-10T02:17:35;1.88;;;1.50;;
69170;SDS011;56279;47.902;12.308;2023-05-10T02:19:40;1.30;;;1.20;;
69170;SDS011;56279;47.902;12.308;2023-05-10T02:21:42;1.48;;;1.25;;
69170;SDS011;56279;47.902;12.308;2023-05-10T02:23:46;2.20;;;1.33;;
69170;SDS011;56279;47.902;12.308;2023-05-10T02:25:51;1.40;;;1.30;;
69170;SDS011;56279;47.902;12.308;2023-05-10T02:27:55;1.85;;;1.27;;
69170;SDS011;56279;47.902;12.308;2023-05-10T02:29:58;1.83;;;1.50;;
69170;SDS011;56279;47.902;12.308;2023-05-10T02:32:00;1.45;;;1.25;;
69170;SDS011;56279;47.902;12.308;2023-05-10T02:34:04;1.85;;;1.30;;
69170;SDS011;56279;47.902;12.308;2023-05-10T02:36:08;2.07;;;1.10;;
69170;SDS011;56279;47.902;12.308;2023-05-10T02:38:11;1.38;;;1.20;;
69170;SDS011;56279;47.902;12.308;2023-05-10T02:40:14;1.20;;;1.10;;
69170;SDS011;56279;47.902;12.308;2023-05-10T02:42:18;2.08;;;1.10;;
69170;SDS011;56279;47.902;12.308;2023-05-10T02:44:23;1.45;;;1.20;;
69170;SDS011;56279;47.902;12.308;2023-05-10T02:46:27;2.30;;;1.07;;
69170;SDS011;56279;47.902;12.308;2023-05-10T02:48:30;1.33;;;1.13;;
69170;SDS011;56279;47.902;12.308;2023-05-10T02:50:32;1.27;;;1.13;;
69170;SDS011;56279;47.902;12.308;2023-05-10T02:52:47;1.20;;;1.10;;
69170;SDS011;56279;47.902;12.308;2023-05-10T02:54:58;2.03;;;1.23;;
69170;SDS011;56279;47.902;12.308;2023-05-10T02:57:04;2.53;;;1.50;;
69170;SDS011;56279;47.902;12.308;2023-05-10T02:59:08;1.42;;;1.25;;
69170;SDS011;56279;47.902;12.308;2023-05-10T03:01:09;1.40;;;1.25;;
69170;SDS011;56279;47.902;12.308;2023-05-10T03:03:10;1.50;;;1.20;;
69170;SDS011;56279;47.902;12.308;2023-05-10T03:05:12;1.13;;;1.02;;
69170;SDS011;56279;47.902;12.308;2023-05-10T03:07:13;1.33;;;1.20;;
69170;SDS011;56279;47.902;12.308;2023-05-10T03:09:16;1.77;;;1.02;;
69170;SDS011;56279;47.902;12.308;2023-05-10T03:13:29;2.05;;;1.95;;
69170;SDS011;56279;47.902;12.308;2023-05-10T03:20:47;1.10;;;1.00;;
69170;SDS011;56279;47.902;12.308;2023-05-10T03:22:51;1.48;;;1.20;;
69170;SDS011;56279;47.902;12.308;2023-05-10T03:25:01;4.10;;;1.30;;
69170;SDS011;56279;47.902;12.308;2023-05-10T03:27:08;2.15;;;1.30;;
69170;SDS011;56279;47.902;12.308;2023-05-10T03:29:11;1.10;;;1.00;;
69170;SDS011;56279;47.902;12.308;2023-05-10T03:31:15;1.17;;;1.08;;
69170;SDS011;56279;47.902;12.308;2023-05-10T03:33:17;1.42;;;1.10;;
69170;SDS011;56279;47.902;12.308;2023-05-10T03:35:21;1.20;;;1.00;;
69170;SDS011;56279;47.902;12.308;2023-05-10T03:37:22;1.40;;;1.25;;
69170;SDS011;56279;47.902;12.308;2023-05-10T03:39:24;1.50;;;1.20;;
69170;SDS011;56279;47.902;12.308;2023-05-10T03:41:29;1.65;;;1.20;;
69170;SDS011;56279;47.902;12.308;2023-05-10T03:43:31;1.40;;;1.30;;
69170;SDS011;56279;47.902;12.308;2023-05-10T03:45:33;1.02;;;0.90;;
69170;SDS011;56279;47.902;12.308;2023-05-10T03:47:34;1.73;;;1.20;;
69170;SDS011;56279;47.902;12.308;2023-05-10T03:49:36;1.43;;;0.90;;
69170;SDS011;56279;47.902;12.308;2023-05-10T03:51:38;1.15;;;1.00;;
69170;SDS011;56279;47.902;12.308;2023-05-10T03:53:39;1.20;;;1.10;;
69170;SDS011;56279;47.902;12.308;2023-05-10T03:55:41;1.20;;;1.10;;
69170;SDS011;56279;47.902;12.308;2023-05-10T03:57:43;1.52;;;1.15;;
69170;SDS011;56279;47.902;12.308;2023-05-10T03:59:44;2.00;;;1.20;;
69170;SDS011;56279;47.902;12.308;2023-05-10T04:01:46;1.58;;;1.10;;
69170;SDS011;56279;47.902;12.308;2023-05-10T04:03:47;3.25;;;1.20;;
69170;SDS011;56279;47.902;12.308;2023-05-10T04:05:48;1.15;;;1.05;;
69170;SDS011;56279;47.902;12.308;2023-05-10T04:07:49;1.15;;;1.00;;
69170;SDS011;56279;47.902;12.308;2023-05-10T04:09:51;1.10;;;1.00;;
69170;SDS011;56279;47.902;12.308;2023-05-10T04:11:53;1.15;;;1.00;;
69170;SDS011;56279;47.902;12.308;2023-05-10T04:13:55;1.08;;;0.98;;
69170;SDS011;56279;47.902;12.308;2023-05-10T04:15:56;2.53;;;1.10;;
69170;SDS011;56279;47.902;12.308;2023-05-10T04:17:57;1.45;;;1.10;;
69170;SDS011;56279;47.902;12.308;2023-05-10T04:19:58;1.03;;;1.00;;
69170;SDS011;56279;47.902;12.308;2023-05-10T04:22:00;1.20;;;1.10;;
69170;SDS011;56279;47.902;12.308;2023-05-10T04:24:03;2.50;;;1.40;;
69170;SDS011;56279;47.902;12.308;2023-05-10T04:26:04;1.38;;;1.20;;
69170;SDS011;56279;47.902;12.308;2023-05-10T04:28:06;1.30;;;1.20;;
69170;SDS011;56279;47.902;12.308;2023-05-10T04:30:07;1.30;;;1.10;;
69170;SDS011;56279;47.902;12.308;2023-05-10T04:32:09;1.83;;;1.17;;
69170;SDS011;56279;47.902;12.308;2023-05-10T04:34:10;1.00;;;0.95;;
69170;SDS011;56279;47.902;12.308;2023-05-10T04:36:12;1.90;;;1.10;;
69170;SDS011;56279;47.902;12.308;2023-05-10T04:38:13;1.38;;;1.20;;
69170;SDS011;56279;47.902;12.308;2023-05-10T04:40:14;1.10;;;1.00;;
69170;SDS011;56279;47.902;12.308;2023-05-10T04:42:17;1.77;;;1.10;;
69170;SDS011;56279;47.902;12.308;2023-05-10T04:44:18;1.58;;;1.20;;
69170;SDS011;56279;47.902;12.308;2023-05-10T04:46:19;1.35;;;1.02;;
69170;SDS011;56279;47.902;12.308;2023-05-10T04:48:20;2.25;;;1.30;;
69170;SDS011;56279;47.902;12.308;2023-05-10T04:50:21;1.40;;;1.10;;
69170;SDS011;56279;47.902;12.308;2023-05-10T04:52:23;1.38;;;1.13;;
69170;SDS011;56279;47.902;12.308;2023-05-10T04:54:24;1.10;;;1.00;;
69170;SDS011;56279;47.902;12.308;2023-05-10T04:56:25;1.92;;;1.20;;
69170;SDS011;56279;47.902;12.308;2023-05-10T04:58:27;2.15;;;1.30;;
69170;SDS011;56279;47.902;12.308;2023-05-10T05:00:28;1.53;;;1.13;;
69170;SDS011;56279;47.902;12.308;2023-05-10T05:02:29;2.78;;;1.10;;
69170;SDS011;56279;47.902;12.308;2023-05-10T05:04:31;2.13;;;1.08;;
69170;SDS011;56279;47.902;12.308;2023-05-10T05:06:32;1.40;;;1.20;;
69170;SDS011;56279;47.902;12.308;2023-05-10T05:08:34;2.92;;;1.10;;
69170;SDS011;56279;47.902;12.308;2023-05-10T05:10:35;1.57;;;1.00;;
69170;SDS011;56279;47.902;12.308;2023-05-10T05:12:36;0.90;;;0.90;;
69170;SDS011;56279;47.902;12.308;2023-05-10T05:14:38;1.40;;;1.30;;
69170;SDS011;56279;47.902;12.308;2023-05-10T05:16:39;1.35;;;1.20;;
69170;SDS011;56279;47.902;12.308;2023-05-10T05:18:41;1.17;;;1.08;;
69170;SDS011;56279;47.902;12.308;2023-05-10T05:20:42;2.80;;;1.33;;
69170;SDS011;56279;47.902;12.308;2023-05-10T05:22:43;2.83;;;1.25;;
69170;SDS011;56279;47.902;12.308;2023-05-10T05:24:44;1.10;;;1.00;;
69170;SDS011;56279;47.902;12.308;2023-05-10T05:26:46;1.70;;;1.30;;
69170;SDS011;56279;47.902;12.308;2023-05-10T05:28:48;1.20;;;1.10;;
69170;SDS011;56279;47.902;12.308;2023-05-10T05:30:50;1.93;;;1.17;;
69170;SDS011;56279;47.902;12.308;2023-05-10T05:33:09;1.30;;;1.20;;
69170;SDS011;56279;47.902;12.308;2023-05-10T05:35:29;1.63;;;1.23;;
69170;SDS011;56279;47.902;12.308;2023-05-10T05:37:30;3.33;;;1.20;;
69170;SDS011;56279;47.902;12.308;2023-05-10T05:39:32;1.95;;;1.30;;
69170;SDS011;56279;47.902;12.308;2023-05-10T05:41:33;1.73;;;1.30;;
69170;SDS011;56279;47.902;12.308;2023-05-10T05:43:35;1.98;;;0.93;;
69170;SDS011;56279;47.902;12.308;2023-05-10T05:45:36;3.50;;;1.30;;
69170;SDS011;56279;47.902;12.308;2023-05-10T05:47:38;1.60;;;1.17;;
69170;SDS011;56279;47.902;12.308;2023-05-10T05:49:40;2.58;;;1.30;;
69170;SDS011;56279;47.902;12.308;2023-05-10T05:51:41;1.20;;;1.10;;
69170;SDS011;56279;47.902;12.308;2023-05-10T05:53:42;1.17;;;1.08;;
69170;SDS011;56279;47.902;12.308;2023-05-10T05:55:50;1.25;;;1.15;;
69170;SDS011;56279;47.902;12.308;2023-05-10T05:57:53;1.67;;;1.10;;
69170;SDS011;56279;47.902;12.308;2023-05-10T05:59:56;2.20;;;1.30;;
69170;SDS011;56279;47.902;12.308;2023-05-10T06:01:57;1.40;;;1.07;;
69170;SDS011;56279;47.902;12.308;2023-05-10T06:03:59;1.95;;;1.25;;
69170;SDS011;56279;47.902;12.308;2023-05-10T06:06:00;1.67;;;1.10;;
69170;SDS011;56279;47.902;12.308;2023-05-10T06:08:01;1.45;;;1.10;;
69170;SDS011;56279;47.902;12.308;2023-05-10T06:10:03;2.08;;;0.90;;
69170;SDS011;56279;47.902;12.308;2023-05-10T06:12:05;2.50;;;1.67;;
69170;SDS011;56279;47.902;12.308;2023-05-10T06:14:06;1.30;;;1.05;;
69170;SDS011;56279;47.902;12.308;2023-05-10T06:16:08;1.10;;;1.00;;
69170;SDS011;56279;47.902;12.308;2023-05-10T06:18:09;1.30;;;1.17;;
69170;SDS011;56279;47.902;12.308;2023-05-10T06:20:11;1.20;;;1.05;;
69170;SDS011;56279;47.902;12.308;2023-05-10T06:22:13;1.80;;;1.20;;
69170;SDS011;56279;47.902;12.308;2023-05-10T06:24:14;1.85;;;1.10;;
69170;SDS011;56279;47.902;12.308;2023-05-10T06:26:15;2.33;;;1.20;;
69170;SDS011;56279;47.902;12.308;2023-05-10T06:28:16;2.30;;;0.93;;
69170;SDS011;56279;47.902;12.308;2023-05-10T06:30:17;1.30;;;1.20;;
69170;SDS011;56279;47.902;12.308;2023-05-10T06:32:19;1.57;;;1.10;;
69170;SDS011;56279;47.902;12.308;2023-05-10T06:34:20;5.82;;;1.45;;
69170;SDS011;56279;47.902;12.308;2023-05-10T06:36:21;2.67;;;1.00;;
69170;SDS011;56279;47.902;12.308;2023-05-10T06:38:24;2.15;;;1.15;;
69170;SDS011;56279;47.902;12.308;2023-05-10T06:40:25;1.20;;;1.10;;
69170;SDS011;56279;47.902;12.308;2023-05-10T06:42:26;1.33;;;1.00;;
69170;SDS011;56279;47.902;12.308;2023-05-10T06:44:28;1.80;;;1.27;;
69170;SDS011;56279;47.902;12.308;2023-05-10T06:46:29;1.55;;;1.20;;
69170;SDS011;56279;47.902;12.308;2023-05-10T06:48:31;2.20;;;1.38;;
69170;SDS011;56279;47.902;12.308;2023-05-10T06:50:32;2.80;;;1.10;;
69170;SDS011;56279;47.902;12.308;2023-05-10T06:52:34;2.57;;;1.47;;
69170;SDS011;56279;47.902;12.308;2023-05-10T06:54:40;2.35;;;1.13;;
69170;SDS011;56279;47.902;12.308;2023-05-10T06:56:41;2.10;;;1.10;;
69170;SDS011;56279;47.902;12.308;2023-05-10T06:58:43;2.25;;;1.30;;
69170;SDS011;56279;47.902;12.308;2023-05-10T07:00:44;1.58;;;1.30;;
69170;SDS011;56279;47.902;12.308;2023-05-10T07:02:46;2.10;;;1.00;;
69170;SDS011;56279;47.902;12.308;2023-05-10T07:04:48;2.17;;;1.20;;
69170;SDS011;56279;47.902;12.308;2023-05-10T07:06:49;1.73;;;1.25;;
69170;SDS011;56279;47.902;12.308;2023-05-10T07:08:50;3.85;;;1.42;;
69170;SDS011;56279;47.902;12.308;2023-05-10T07:10:51;4.20;;;1.40;;
69170;SDS011;56279;47.902;12.308;2023-05-10T07:12:53;3.43;;;1.97;;
69170;SDS011;56279;47.902;12.308;2023-05-10T07:14:54;2.50;;;1.33;;
69170;SDS011;56279;47.902;12.308;2023-05-10T07:16:55;3.95;;;2.33;;
69170;SDS011;56279;47.902;12.308;2023-05-10T07:18:56;4.07;;;1.45;;
69170;SDS011;56279;47.902;12.308;2023-05-10T07:20:57;3.70;;;1.20;;
69170;SDS011;56279;47.902;12.308;2023-05-10T07:22:59;1.87;;;1.30;;
69170;SDS011;56279;47.902;12.308;2023-05-10T07:25:00;2.10;;;1.13;;
69170;SDS011;56279;47.902;12.308;2023-05-10T07:27:01;3.42;;;1.15;;
69170;SDS011;56279;47.902;12.308;2023-05-10T07:29:03;2.65;;;1.20;;
69170;SDS011;56279;47.902;12.308;2023-05-10T07:31:04;1.92;;;1.30;;
69170;SDS011;56279;47.902;12.308;2023-05-10T07:33:05;1.77;;;1.20;;
69170;SDS011;56279;47.902;12.308;2023-05-10T07:35:07;1.38;;;1.23;;
69170;SDS011;56279;47.902;12.308;2023-05-10T07:37:09;3.20;;;1.42;;
69170;SDS011;56279;47.902;12.308;2023-05-10T07:39:10;3.80;;;1.30;;
69170;SDS011;56279;47.902;12.308;2023-05-10T07:41:11;1.85;;;1.30;;
69170;SDS011;56279;47.902;12.308;2023-05-10T07:43:13;2.33;;;1.40;;
69170;SDS011;56279;47.902;12.308;2023-05-10T07:45:14;2.15;;;1.40;;
69170;SDS011;56279;47.902;12.308;2023-05-10T07:47:15;2.63;;;1.50;;
69170;SDS011;56279;47.902;12.308;2023-05-10T07:49:17;2.83;;;1.40;;
69170;SDS011;56279;47.902;12.308;2023-05-10T07:51:18;3.85;;;1.60;;
69170;SDS011;56279;47.902;12.308;2023-05-10T07:53:21;1.80;;;1.30;;
69170;SDS011;56279;47.902;12.308;2023-05-10T07:55:23;1.88;;;1.35;;
69170;SDS011;56279;47.902;12.308;2023-05-10T07:57:24;1.80;;;1.35;;
69170;SDS011;56279;47.902;12.308;2023-05-10T07:59:25;4.40;;;1.40;;
69170;SDS011;56279;47.902;12.308;2023-05-10T08:01:26;4.88;;;1.90;;
69170;SDS011;56279;47.902;12.308;2023-05-10T08:03:31;1.80;;;1.20;;
69170;SDS011;56279;47.902;12.308;2023-05-10T08:05:32;1.88;;;1.38;;
69170;SDS011;56279;47.902;12.308;2023-05-10T08:07:33;2.20;;;1.40;;
69170;SDS011;56279;47.902;12.308;2023-05-10T08:09:35;3.03;;;1.35;;
69170;SDS011;56279;47.902;12.308;2023-05-10T08:11:36;1.58;;;1.40;;
69170;SDS011;56279;47.902;12.308;2023-05-10T08:13:38;4.20;;;1.30;;
69170;SDS011;56279;47.902;12.308;2023-05-10T08:15:39;2.30;;;1.42;;
69170;SDS011;56279;47.902;12.308;2023-05-10T08:17:40;1.70;;;1.27;;
69170;SDS011;56279;47.902;12.308;2023-05-10T08:19:41;2.80;;;1.30;;
69170;SDS011;56279;47.902;12.308;2023-05-10T08:21:43;2.05;;;1.40;;
69170;SDS011;56279;47.902;12.308;2023-05-10T08:23:44;3.10;;;1.50;;
69170;SDS011;56279;47.902;12.308;2023-05-10T08:25:45;1.95;;;1.40;;
69170;SDS011;56279;47.902;12.308;2023-05-10T08:27:46;4.82;;;1.60;;
69170;SDS011;56279;47.902;12.308;2023-05-10T08:29:47;2.03;;;1.30;;
69170;SDS011;56279;47.902;12.308;2023-05-10T08:31:50;2.20;;;1.70;;
69170;SDS011;56279;47.902;12.308;2023-05-10T08:33:51;2.97;;;1.53;;
69170;SDS011;56279;47.902;12.308;2023-05-10T08:35:53;4.07;;;1.52;;
69170;SDS011;56279;47.902;12.308;2023-05-10T08:37:54;3.00;;;1.50;;
69170;SDS011;56279;47.902;12.308;2023-05-10T08:39:55;2.60;;;1.50;;
69170;SDS011;56279;47.902;12.308;2023-05-10T08:41:57;2.08;;;1.42;;
69170;SDS011;56279;47.902;12.308;2023-05-10T08:44:03;1.90;;;1.50;;
69170;SDS011;56279;47.902;12.308;2023-05-10T08:46:06;3.58;;;1.50;;
69170;SDS011;56279;47.902;12.308;2023-05-10T08:48:10;2.63;;;1.77;;
69170;SDS011;56279;47.902;12.308;2023-05-10T08:50:12;3.38;;;1.30;;
69170;SDS011;56279;47.902;12.308;2023-05-10T08:52:15;2.80;;;1.60;;
69170;SDS011;56279;47.902;12.308;2023-05-10T08:54:21;2.03;;;1.33;;
69170;SDS011;56279;47.902;12.308;2023-05-10T08:56:23;2.03;;;1.35;;
69170;SDS011;56279;47.902;12.308;2023-05-10T08:58:24;2.33;;;1.70;;
69170;SDS011;56279;47.902;12.308;2023-05-10T09:00:26;2.80;;;1.50;;
69170;SDS011;56279;47.902;12.308;2023-05-10T09:02:29;2.40;;;1.60;;
69170;SDS011;56279;47.902;12.308;2023-05-10T09:04:31;2.67;;;1.57;;
69170;SDS011;56279;47.902;12.308;2023-05-10T09:06:32;2.58;;;1.40;;
69170;SDS011;56279;47.902;12.308;2023-05-10T09:08:34;2.03;;;1.50;;
69170;SDS011;56279;47.902;12.308;2023-05-10T09:10:37;1.60;;;1.40;;
69170;SDS011;56279;47.902;12.308;2023-05-10T09:12:40;5.15;;;1.80;;
69170;SDS011;56279;47.902;12.308;2023-05-10T09:14:42;2.50;;;1.57;;
69170;SDS011;56279;47.902;12.308;2023-05-10T09:16:45;2.25;;;1.42;;
69170;SDS011;56279;47.902;12.308;2023-05-10T09:18:47;3.20;;;1.70;;
69170;SDS011;56279;47.902;12.308;2023-05-10T09:20:50;3.08;;;1.58;;
69170;SDS011;56279;47.902;12.308;2023-05-10T09:22:51;2.90;;;1.70;;
69170;SDS011;56279;47.902;12.308;2023-05-10T09:25:12;2.20;;;1.50;;
69170;SDS011;56279;47.902;12.308;2023-05-10T09:27:14;3.60;;;1.60;;
69170;SDS011;56279;47.902;12.308;2023-05-10T09:29:16;3.05;;;1.80;;
69170;SDS011;56279;47.902;12.308;2023-05-10T09:31:17;2.10;;;1.58;;
69170;SDS011;56279;47.902;12.308;2023-05-10T09:33:18;3.92;;;1.90;;
69170;SDS011;56279;47.902;12.308;2023-05-10T09:35:21;3.13;;;1.60;;
69170;SDS011;56279;47.902;12.308;2023-05-10T09:37:30;2.97;;;1.55;;
69170;SDS011;56279;47.902;12.308;2023-05-10T09:39:35;4.82;;;1.98;;
69170;SDS011;56279;47.902;12.308;2023-05-10T09:41:38;3.33;;;1.73;;
69170;SDS011;56279;47.902;12.308;2023-05-10T09:43:39;2.90;;;1.63;;
69170;SDS011;56279;47.902;12.308;2023-05-10T09:45:40;2.97;;;1.70;;
69170;SDS011;56279;47.902;12.308;2023-05-10T09:47:42;2.80;;;1.60;;
69170;SDS011;56279;47.902;12.308;2023-05-10T09:49:43;5.05;;;2.00;;
69170;SDS011;56279;47.902;12.308;2023-05-10T09:51:46;3.75;;;1.95;;
69170;SDS011;56279;47.902;12.308;2023-05-10T09:53:49;2.83;;;1.90;;
69170;SDS011;56279;47.902;12.308;2023-05-10T09:56:10;2.73;;;1.97;;
69170;SDS011;56279;47.902;12.308;2023-05-10T09:58:14;3.75;;;2.10;;
69170;SDS011;56279;47.902;12.308;2023-05-10T10:00:19;4.05;;;2.15;;
69170;SDS011;56279;47.902;12.308;2023-05-10T10:02:20;2.95;;;1.73;;
69170;SDS011;56279;47.902;12.308;2023-05-10T10:04:22;3.30;;;1.90;;
69170;SDS011;56279;47.902;12.308;2023-05-10T10:06:24;3.23;;;1.70;;
69170;SDS011;56279;47.902;12.308;2023-05-10T10:08:25;1.90;;;1.63;;
69170;SDS011;56279;47.902;12.308;2023-05-10T10:10:27;2.92;;;1.90;;
69170;SDS011;56279;47.902;12.308;2023-05-10T10:12:30;2.75;;;1.95;;
69170;SDS011;56279;47.902;12.308;2023-05-10T10:14:31;3.67;;;2.03;;
69170;SDS011;56279;47.902;12.308;2023-05-10T10:16:33;2.60;;;1.60;;
69170;SDS011;56279;47.902;12.308;2023-05-10T10:18:35;3.03;;;1.75;;
69170;SDS011;56279;47.902;12.308;2023-05-10T10:20:39;5.28;;;2.10;;
69170;SDS011;56279;47.902;12.308;2023-05-10T10:22:41;2.47;;;1.73;;
69170;SDS011;56279;47.902;12.308;2023-05-10T10:24:44;3.58;;;1.95;;
69170;SDS011;56279;47.902;12.308;2023-05-10T10:26:46;2.87;;;1.80;;
69170;SDS011;56279;47.902;12.308;2023-05-10T10:31:11;2.78;;;1.90;;
69170;SDS011;56279;47.902;12.308;2023-05-10T10:35:25;3.67;;;1.88;;
69170;SDS011;56279;47.902;12.308;2023-05-10T10:37:45;2.47;;;1.70;;
69170;SDS011;56279;47.902;12.308;2023-05-10T10:39:48;1.70;;;1.30;;
69170;SDS011;56279;47.902;12.308;2023-05-10T10:41:51;1.98;;;1.45;;
69170;SDS011;56279;47.902;12.308;2023-05-10T10:46:25;2.60;;;1.52;;
69170;SDS011;56279;47.902;12.308;2023-05-10T10:48:27;2.30;;;1.50;;
69170;SDS011;56279;47.902;12.308;2023-05-10T10:50:28;2.55;;;1.40;;
69170;SDS011;56279;47.902;12.308;2023-05-10T10:54:40;3.33;;;1.30;;
69170;SDS011;56279;47.902;12.308;2023-05-10T10:56:44;2.08;;;1.50;;
69170;SDS011;56279;47.902;12.308;2023-05-10T10:58:49;2.57;;;1.77;;
69170;SDS011;56279;47.902;12.308;2023-05-10T11:01:08;3.60;;;1.60;;
69170;SDS011;56279;47.902;12.308;2023-05-10T11:03:19;2.47;;;1.60;;
69170;SDS011;56279;47.902;12.308;2023-05-10T11:07:54;1.80;;;1.58;;
69170;SDS011;56279;47.902;12.308;2023-05-10T11:10:03;2.83;;;1.60;;
69170;SDS011;56279;47.902;12.308;2023-05-10T11:12:07;3.13;;;1.60;;
69170;SDS011;56279;47.902;12.308;2023-05-10T11:14:09;2.97;;;1.98;;
69170;SDS011;56279;47.902;12.308;2023-05-10T11:16:12;6.28;;;1.70;;
69170;SDS011;56279;47.902;12.308;2023-05-10T11:18:47;1.85;;;1.42;;
69170;SDS011;56279;47.902;12.308;2023-05-10T11:20:41;2.23;;;1.13;;
69170;SDS011;56279;47.902;12.308;2023-05-10T11:22:52;1.63;;;1.20;;
69170;SDS011;56279;47.902;12.308;2023-05-10T11:24:57;1.90;;;1.40;;
69170;SDS011;56279;47.902;12.308;2023-05-10T11:26:59;2.40;;;1.20;;
69170;SDS011;56279;47.902;12.308;2023-05-10T11:29:01;3.25;;;1.50;;
69170;SDS011;56279;47.902;12.308;2023-05-10T11:31:05;1.80;;;1.30;;
69170;SDS011;56279;47.902;12.308;2023-05-10T11:33:07;2.85;;;1.30;;
69170;SDS011;56279;47.902;12.308;2023-05-10T11:35:09;2.30;;;1.50;;
69170;SDS011;56279;47.902;12.308;2023-05-10T11:37:12;1.65;;;1.23;;
69170;SDS011;56279;47.902;12.308;2023-05-10T11:39:13;1.88;;;1.30;;
69170;SDS011;56279;47.902;12.308;2023-05-10T11:41:15;3.37;;;1.37;;
69170;SDS011;56279;47.902;12.308;2023-05-10T11:43:19;2.17;;;1.67;;
69170;SDS011;56279;47.902;12.308;2023-05-10T11:45:29;2.17;;;1.50;;
69170;SDS011;56279;47.902;12.308;2023-05-10T11:47:35;1.42;;;1.30;;
69170;SDS011;56279;47.902;12.308;2023-05-10T11:49:37;1.67;;;1.30;;
69170;SDS011;56279;47.902;12.308;2023-05-10T11:51:39;2.13;;;1.20;;
69170;SDS011;56279;47.902;12.308;2023-05-10T11:53:40;1.95;;;1.40;;
69170;SDS011;56279;47.902;12.308;2023-05-10T11:55:41;1.73;;;1.40;;
69170;SDS011;56279;47.902;12.308;2023-05-10T11:57:43;2.30;;;1.42;;
69170;SDS011;56279;47.902;12.308;2023-05-10T11:59:46;2.63;;;1.70;;
69170;SDS011;56279;47.902;12.308;2023-05-10T12:01:48;2.50;;;1.30;;
69170;SDS011;56279;47.902;12.308;2023-05-10T12:03:50;1.38;;;1.20;;
69170;SDS011;56279;47.902;12.308;2023-05-10T12:05:55;1.95;;;1.30;;
69170;SDS011;56279;47.902;12.308;2023-05-10T12:08:12;2.30;;;1.27;;
69170;SDS011;56279;47.902;12.308;2023-05-10T12:10:14;2.55;;;1.50;;
69170;SDS011;56279;47.902;12.308;2023-05-10T12:12:16;1.40;;;1.20;;
69170;SDS011;56279;47.902;12.308;2023-05-10T12:14:17;1.30;;;1.20;;
69170;SDS011;56279;47.902;12.308;2023-05-10T12:16:21;1.55;;;1.20;;
69170;SDS011;56279;47.902;12.308;2023-05-10T12:18:24;1.70;;;1.30;;
69170;SDS011;56279;47.902;12.308;2023-05-10T12:20:27;1.67;;;1.30;;
69170;SDS011;56279;47.902;12.308;2023-05-10T12:22:29;1.70;;;1.33;;
69170;SDS011;56279;47.902;12.308;2023-05-10T12:24:34;3.67;;;1.63;;
69170;SDS011;56279;47.902;12.308;2023-05-10T12:26:39;2.10;;;1.30;;
69170;SDS011;56279;47.902;12.308;2023-05-10T12:28:40;1.55;;;1.20;;
69170;SDS011;56279;47.902;12.308;2023-05-10T12:30:42;1.33;;;1.23;;
69170;SDS011;56279;47.902;12.308;2023-05-10T12:32:47;1.60;;;1.30;;
69170;SDS011;56279;47.902;12.308;2023-05-10T12:34:51;2.45;;;1.30;;
69170;SDS011;56279;47.902;12.308;2023-05-10T12:36:54;1.98;;;1.50;;
69170;SDS011;56279;47.902;12.308;2023-05-10T12:39:06;1.73;;;1.30;;